sensor_id;sensor_type;location;lat;lon;timestamp;P1;durP1;ratioP1;P2;durP2;ratioP2
19535;SDS011;9913;51.168;4.124;2024-03-23T00:56:00;11.80;;;6.80;;
19535;SDS011;9913;51.168;4.124;2024-03-23T00:58:27;12.73;;;6.50;;
19535;SDS011;9913;51.168;4.124;2024-03-23T01:00:54;10.40;;;5.63;;
19535;SDS011;9913;51.168;4.124;2024-03-23T01:03:21;9.57;;;5.63;;
19535;SDS011;9913;51.168;4.124;2024-03-23T01:05:47;13.50;;;6.20;;
19535;SDS011;9913;51.168;4.124;2024-03-23T01:08:15;15.17;;;6.63;;
19535;SDS011;9913;51.168;4.124;2024-03-23T01:10:43;14.17;;;7.20;;
19535;SDS011;9913;51.168;4.124;2024-03-23T01:13:20;10.40;;;6.00;;
19535;SDS011;9913;51.168;4.124;2024-03-23T01:15:48;11.77;;;5.90;;
19535;SDS011;9913;51.168;4.124;2024-03-23T01:18:17;13.57;;;6.83;;
19535;SDS011;9913;51.168;4.124;2024-03-23T01:20:44;10.33;;;6.50;;
19535;SDS011;9913;51.168;4.124;2024-03-23T01:23:11;13.77;;;7.17;;
19535;SDS011;9913;51.168;4.124;2024-03-23T01:25:38;13.63;;;7.93;;
19535;SDS011;9913;51.168;4.124;2024-03-23T01:28:07;11.77;;;7.63;;
19535;SDS011;9913;51.168;4.124;2024-03-23T01:30:33;11.37;;;7.03;;
19535;SDS011;9913;51.168;4.124;2024-03-23T01:33:01;20.23;;;10.00;;
19535;SDS011;9913;51.168;4.124;2024-03-23T01:35:28;15.27;;;8.20;;
19535;SDS011;9913;51.168;4.124;2024-03-23T01:37:55;17.03;;;9.13;;
19535;SDS011;9913;51.168;4.124;2024-03-23T01:40:22;17.83;;;8.57;;
19535;SDS011;9913;51.168;4.124;2024-03-23T01:42:55;21.67;;;9.80;;
19535;SDS011;9913;51.168;4.124;2024-03-23T01:45:23;18.67;;;10.20;;
19535;SDS011;9913;51.168;4.124;2024-03-23T01:47:51;17.77;;;9.50;;
19535;SDS011;9913;51.168;4.124;2024-03-23T01:50:18;24.60;;;9.60;;
19535;SDS011;9913;51.168;4.124;2024-03-23T01:52:46;18.63;;;9.23;;
19535;SDS011;9913;51.168;4.124;2024-03-23T01:55:12;17.03;;;8.20;;
19535;SDS011;9913;51.168;4.124;2024-03-23T01:57:40;21.77;;;7.47;;
19535;SDS011;9913;51.168;4.124;2024-03-23T02:00:06;13.50;;;7.60;;
19535;SDS011;9913;51.168;4.124;2024-03-23T02:02:42;16.13;;;6.73;;
19535;SDS011;9913;51.168;4.124;2024-03-23T02:05:10;16.60;;;6.30;;
19535;SDS011;9913;51.168;4.124;2024-03-23T02:07:37;14.53;;;6.50;;
19535;SDS011;9913;51.168;4.124;2024-03-23T02:10:05;21.10;;;7.17;;
19535;SDS011;9913;51.168;4.124;2024-03-23T02:12:33;13.50;;;5.43;;
19535;SDS011;9913;51.168;4.124;2024-03-23T02:14:59;18.63;;;5.17;;
19535;SDS011;9913;51.168;4.124;2024-03-23T02:17:27;13.47;;;5.87;;
19535;SDS011;9913;51.168;4.124;2024-03-23T02:19:56;11.40;;;4.67;;
19535;SDS011;9913;51.168;4.124;2024-03-23T02:22:23;13.10;;;4.83;;
19535;SDS011;9913;51.168;4.124;2024-03-23T02:24:51;16.43;;;5.83;;
19535;SDS011;9913;51.168;4.124;2024-03-23T02:27:18;13.93;;;4.93;;
19535;SDS011;9913;51.168;4.124;2024-03-23T02:29:44;14.17;;;5.73;;
19535;SDS011;9913;51.168;4.124;2024-03-23T02:32:11;14.93;;;5.73;;
19535;SDS011;9913;51.168;4.124;2024-03-23T02:34:38;15.57;;;6.47;;
19535;SDS011;9913;51.168;4.124;2024-03-23T02:37:10;14.93;;;5.60;;
19535;SDS011;9913;51.168;4.124;2024-03-23T02:39:36;13.63;;;5.47;;
19535;SDS011;9913;51.168;4.124;2024-03-23T02:42:05;11.83;;;5.60;;
19535;SDS011;9913;51.168;4.124;2024-03-23T02:44:31;14.60;;;6.70;;
19535;SDS011;9913;51.168;4.124;2024-03-23T02:46:59;9.80;;;5.10;;
19535;SDS011;9913;51.168;4.124;2024-03-23T02:49:25;11.23;;;4.57;;
19535;SDS011;9913;51.168;4.124;2024-03-23T02:51:53;11.33;;;5.03;;
19535;SDS011;9913;51.168;4.124;2024-03-23T02:54:19;12.37;;;4.50;;
19535;SDS011;9913;51.168;4.124;2024-03-23T02:56:47;10.80;;;4.70;;
19535;SDS011;9913;51.168;4.124;2024-03-23T02:59:14;9.40;;;4.40;;
19535;SDS011;9913;51.168;4.124;2024-03-23T03:01:42;12.30;;;4.67;;
19535;SDS011;9913;51.168;4.124;2024-03-23T03:04:08;9.60;;;4.30;;
19535;SDS011;9913;51.168;4.124;2024-03-23T03:06:35;12.77;;;4.57;;
19535;SDS011;9913;51.168;4.124;2024-03-23T03:09:02;7.87;;;4.30;;
19535;SDS011;9913;51.168;4.124;2024-03-23T03:11:30;11.93;;;4.30;;
19535;SDS011;9913;51.168;4.124;2024-03-23T03:13:56;10.73;;;4.27;;
19535;SDS011;9913;51.168;4.124;2024-03-23T03:16:27;15.67;;;5.30;;
19535;SDS011;9913;51.168;4.124;2024-03-23T03:18:53;12.23;;;3.77;;
19535;SDS011;9913;51.168;4.124;2024-03-23T03:21:21;10.27;;;4.10;;
19535;SDS011;9913;51.168;4.124;2024-03-23T03:23:47;12.37;;;4.13;;
19535;SDS011;9913;51.168;4.124;2024-03-23T03:26:16;11.57;;;4.00;;
19535;SDS011;9913;51.168;4.124;2024-03-23T03:28:43;9.83;;;3.80;;
19535;SDS011;9913;51.168;4.124;2024-03-23T03:31:14;16.87;;;5.20;;
19535;SDS011;9913;51.168;4.124;2024-03-23T03:33:41;8.93;;;4.00;;
19535;SDS011;9913;51.168;4.124;2024-03-23T03:36:09;8.73;;;3.47;;
19535;SDS011;9913;51.168;4.124;2024-03-23T03:38:35;10.53;;;3.77;;
19535;SDS011;9913;51.168;4.124;2024-03-23T03:41:04;8.30;;;3.73;;
19535;SDS011;9913;51.168;4.124;2024-03-23T03:43:31;17.47;;;4.33;;
19535;SDS011;9913;51.168;4.124;2024-03-23T03:45:59;9.10;;;4.77;;
19535;SDS011;9913;51.168;4.124;2024-03-23T03:48:26;11.13;;;4.53;;
19535;SDS011;9913;51.168;4.124;2024-03-23T03:50:55;10.97;;;4.80;;
19535;SDS011;9913;51.168;4.124;2024-03-23T03:53:21;11.17;;;5.43;;
19535;SDS011;9913;51.168;4.124;2024-03-23T03:55:49;10.43;;;5.23;;
19535;SDS011;9913;51.168;4.124;2024-03-23T03:58:15;12.33;;;6.23;;
19535;SDS011;9913;51.168;4.124;2024-03-23T04:00:42;14.53;;;6.00;;
19535;SDS011;9913;51.168;4.124;2024-03-23T04:03:08;13.10;;;5.23;;
19535;SDS011;9913;51.168;4.124;2024-03-23T04:05:36;12.87;;;6.20;;
19535;SDS011;9913;51.168;4.124;2024-03-23T04:08:05;17.33;;;7.03;;
19535;SDS011;9913;51.168;4.124;2024-03-23T04:10:34;23.23;;;8.03;;
19535;SDS011;9913;51.168;4.124;2024-03-23T04:13:00;16.97;;;8.00;;
19535;SDS011;9913;51.168;4.124;2024-03-23T04:15:29;14.03;;;7.53;;
19535;SDS011;9913;51.168;4.124;2024-03-23T04:17:56;15.67;;;7.37;;
19535;SDS011;9913;51.168;4.124;2024-03-23T04:20:23;15.53;;;6.97;;
19535;SDS011;9913;51.168;4.124;2024-03-23T04:22:50;15.67;;;6.30;;
19535;SDS011;9913;51.168;4.124;2024-03-23T04:25:18;15.37;;;7.23;;
19535;SDS011;9913;51.168;4.124;2024-03-23T04:27:45;13.77;;;5.80;;
19535;SDS011;9913;51.168;4.124;2024-03-23T04:30:12;13.53;;;6.87;;
19535;SDS011;9913;51.168;4.124;2024-03-23T04:32:41;13.10;;;6.33;;
19535;SDS011;9913;51.168;4.124;2024-03-23T04:35:07;16.10;;;5.87;;
19535;SDS011;9913;51.168;4.124;2024-03-23T04:37:35;15.97;;;5.50;;
19535;SDS011;9913;51.168;4.124;2024-03-23T04:40:03;16.30;;;6.50;;
19535;SDS011;9913;51.168;4.124;2024-03-23T04:42:34;13.60;;;6.13;;
19535;SDS011;9913;51.168;4.124;2024-03-23T04:45:01;13.17;;;6.47;;
19535;SDS011;9913;51.168;4.124;2024-03-23T04:47:29;14.60;;;6.60;;
19535;SDS011;9913;51.168;4.124;2024-03-23T04:49:57;11.93;;;6.37;;
19535;SDS011;9913;51.168;4.124;2024-03-23T04:52:24;12.20;;;6.33;;
19535;SDS011;9913;51.168;4.124;2024-03-23T04:54:51;16.50;;;8.57;;
19535;SDS011;9913;51.168;4.124;2024-03-23T04:57:18;16.90;;;7.80;;
19535;SDS011;9913;51.168;4.124;2024-03-23T04:59:47;16.70;;;8.03;;
19535;SDS011;9913;51.168;4.124;2024-03-23T05:02:14;17.20;;;7.97;;
19535;SDS011;9913;51.168;4.124;2024-03-23T05:04:41;14.67;;;8.27;;
19535;SDS011;9913;51.168;4.124;2024-03-23T05:07:08;17.70;;;8.73;;
19535;SDS011;9913;51.168;4.124;2024-03-23T05:09:35;25.13;;;9.63;;
19535;SDS011;9913;51.168;4.124;2024-03-23T05:12:02;18.13;;;7.97;;
19535;SDS011;9913;51.168;4.124;2024-03-23T05:14:29;15.93;;;8.07;;
19535;SDS011;9913;51.168;4.124;2024-03-23T05:16:57;21.73;;;9.13;;
19535;SDS011;9913;51.168;4.124;2024-03-23T05:19:24;22.30;;;9.07;;
19535;SDS011;9913;51.168;4.124;2024-03-23T05:21:51;18.00;;;7.80;;
19535;SDS011;9913;51.168;4.124;2024-03-23T05:24:19;15.33;;;8.27;;
19535;SDS011;9913;51.168;4.124;2024-03-23T05:26:45;23.20;;;8.63;;
19535;SDS011;9913;51.168;4.124;2024-03-23T05:29:12;21.97;;;7.30;;
19535;SDS011;9913;51.168;4.124;2024-03-23T05:31:39;15.73;;;6.83;;
19535;SDS011;9913;51.168;4.124;2024-03-23T05:34:09;21.07;;;7.80;;
19535;SDS011;9913;51.168;4.124;2024-03-23T05:36:35;16.00;;;6.60;;
19535;SDS011;9913;51.168;4.124;2024-03-23T05:39:03;13.00;;;6.60;;
19535;SDS011;9913;51.168;4.124;2024-03-23T05:41:29;15.03;;;6.40;;
19535;SDS011;9913;51.168;4.124;2024-03-23T05:43:56;15.80;;;6.50;;
19535;SDS011;9913;51.168;4.124;2024-03-23T05:46:23;18.73;;;6.53;;
19535;SDS011;9913;51.168;4.124;2024-03-23T05:48:50;18.40;;;6.40;;
19535;SDS011;9913;51.168;4.124;2024-03-23T05:51:27;14.07;;;5.60;;
19535;SDS011;9913;51.168;4.124;2024-03-23T05:53:54;11.33;;;4.80;;
19535;SDS011;9913;51.168;4.124;2024-03-23T05:56:20;15.77;;;5.43;;
19535;SDS011;9913;51.168;4.124;2024-03-23T05:58:47;16.30;;;4.87;;
19535;SDS011;9913;51.168;4.124;2024-03-23T06:01:14;12.37;;;3.87;;
19535;SDS011;9913;51.168;4.124;2024-03-23T06:03:41;9.47;;;3.23;;
19535;SDS011;9913;51.168;4.124;2024-03-23T06:06:09;14.37;;;3.53;;
19535;SDS011;9913;51.168;4.124;2024-03-23T06:08:39;9.57;;;3.63;;
19535;SDS011;9913;51.168;4.124;2024-03-23T06:11:06;16.63;;;4.83;;
19535;SDS011;9913;51.168;4.124;2024-03-23T06:13:33;9.27;;;3.90;;
19535;SDS011;9913;51.168;4.124;2024-03-23T06:16:00;16.47;;;4.90;;
19535;SDS011;9913;51.168;4.124;2024-03-23T06:18:28;15.43;;;6.13;;
19535;SDS011;9913;51.168;4.124;2024-03-23T06:20:54;13.37;;;5.03;;
19535;SDS011;9913;51.168;4.124;2024-03-23T06:23:21;16.20;;;5.63;;
19535;SDS011;9913;51.168;4.124;2024-03-23T06:25:49;10.43;;;4.37;;
19535;SDS011;9913;51.168;4.124;2024-03-23T06:28:16;14.93;;;5.37;;
19535;SDS011;9913;51.168;4.124;2024-03-23T06:30:44;11.67;;;5.00;;
19535;SDS011;9913;51.168;4.124;2024-03-23T06:33:11;13.17;;;5.13;;
19535;SDS011;9913;51.168;4.124;2024-03-23T06:35:37;13.07;;;5.00;;
19535;SDS011;9913;51.168;4.124;2024-03-23T06:38:05;11.23;;;4.43;;
19535;SDS011;9913;51.168;4.124;2024-03-23T06:40:31;11.53;;;4.23;;
19535;SDS011;9913;51.168;4.124;2024-03-23T06:43:00;14.00;;;4.77;;
19535;SDS011;9913;51.168;4.124;2024-03-23T06:45:26;13.47;;;4.53;;
19535;SDS011;9913;51.168;4.124;2024-03-23T06:47:53;14.00;;;4.70;;
19535;SDS011;9913;51.168;4.124;2024-03-23T06:50:21;16.23;;;5.50;;
19535;SDS011;9913;51.168;4.124;2024-03-23T06:52:49;15.23;;;4.87;;
19535;SDS011;9913;51.168;4.124;2024-03-23T06:55:15;12.33;;;5.30;;
19535;SDS011;9913;51.168;4.124;2024-03-23T06:57:42;15.53;;;5.07;;
19535;SDS011;9913;51.168;4.124;2024-03-23T07:00:11;17.13;;;5.07;;
19535;SDS011;9913;51.168;4.124;2024-03-23T07:02:41;12.93;;;4.70;;
19535;SDS011;9913;51.168;4.124;2024-03-23T07:05:07;14.50;;;3.17;;
19535;SDS011;9913;51.168;4.124;2024-03-23T07:07:34;8.70;;;3.27;;
19535;SDS011;9913;51.168;4.124;2024-03-23T07:10:01;11.70;;;3.93;;
19535;SDS011;9913;51.168;4.124;2024-03-23T07:12:28;10.17;;;2.83;;
19535;SDS011;9913;51.168;4.124;2024-03-23T07:14:54;8.80;;;3.10;;
19535;SDS011;9913;51.168;4.124;2024-03-23T07:17:23;15.80;;;4.03;;
19535;SDS011;9913;51.168;4.124;2024-03-23T07:19:49;11.73;;;3.50;;
19535;SDS011;9913;51.168;4.124;2024-03-23T07:22:17;10.20;;;2.83;;
19535;SDS011;9913;51.168;4.124;2024-03-23T07:24:43;12.33;;;3.87;;
19535;SDS011;9913;51.168;4.124;2024-03-23T07:27:11;9.80;;;2.90;;
19535;SDS011;9913;51.168;4.124;2024-03-23T07:29:37;8.93;;;3.27;;
19535;SDS011;9913;51.168;4.124;2024-03-23T07:32:04;13.10;;;3.73;;
19535;SDS011;9913;51.168;4.124;2024-03-23T07:34:32;9.73;;;2.50;;
19535;SDS011;9913;51.168;4.124;2024-03-23T07:37:00;12.97;;;3.83;;
19535;SDS011;9913;51.168;4.124;2024-03-23T07:39:26;9.23;;;3.07;;
19535;SDS011;9913;51.168;4.124;2024-03-23T07:41:54;10.83;;;3.30;;
19535;SDS011;9913;51.168;4.124;2024-03-23T07:44:20;11.53;;;3.53;;
19535;SDS011;9913;51.168;4.124;2024-03-23T07:46:47;9.00;;;2.90;;
19535;SDS011;9913;51.168;4.124;2024-03-23T07:49:14;13.23;;;4.23;;
19535;SDS011;9913;51.168;4.124;2024-03-23T07:51:42;9.33;;;3.67;;
19535;SDS011;9913;51.168;4.124;2024-03-23T07:54:10;10.80;;;3.80;;
19535;SDS011;9913;51.168;4.124;2024-03-23T07:56:37;11.10;;;3.57;;
19535;SDS011;9913;51.168;4.124;2024-03-23T07:59:04;10.57;;;3.30;;
19535;SDS011;9913;51.168;4.124;2024-03-23T08:01:31;8.63;;;3.63;;
19535;SDS011;9913;51.168;4.124;2024-03-23T08:03:58;14.13;;;3.93;;
19535;SDS011;9913;51.168;4.124;2024-03-23T08:06:25;11.30;;;3.33;;
19535;SDS011;9913;51.168;4.124;2024-03-23T08:08:54;6.70;;;2.60;;
19535;SDS011;9913;51.168;4.124;2024-03-23T08:11:26;10.53;;;2.90;;
19535;SDS011;9913;51.168;4.124;2024-03-23T08:13:53;9.43;;;3.23;;
19535;SDS011;9913;51.168;4.124;2024-03-23T08:16:20;8.33;;;2.83;;
19535;SDS011;9913;51.168;4.124;2024-03-23T08:18:47;12.67;;;3.43;;
19535;SDS011;9913;51.168;4.124;2024-03-23T08:21:14;12.23;;;3.57;;
19535;SDS011;9913;51.168;4.124;2024-03-23T08:23:40;11.00;;;3.50;;
19535;SDS011;9913;51.168;4.124;2024-03-23T08:26:11;11.13;;;3.77;;
19535;SDS011;9913;51.168;4.124;2024-03-23T08:28:39;7.97;;;3.63;;
19535;SDS011;9913;51.168;4.124;2024-03-23T08:31:07;7.33;;;3.90;;
19535;SDS011;9913;51.168;4.124;2024-03-23T08:33:34;10.17;;;3.47;;
19535;SDS011;9913;51.168;4.124;2024-03-23T08:36:03;11.60;;;3.67;;
19535;SDS011;9913;51.168;4.124;2024-03-23T08:38:30;7.23;;;2.53;;
19535;SDS011;9913;51.168;4.124;2024-03-23T08:40:58;8.47;;;2.80;;
19535;SDS011;9913;51.168;4.124;2024-03-23T08:43:27;10.63;;;3.17;;
19535;SDS011;9913;51.168;4.124;2024-03-23T08:46:03;7.90;;;3.30;;
19535;SDS011;9913;51.168;4.124;2024-03-23T08:48:29;10.83;;;3.50;;
19535;SDS011;9913;51.168;4.124;2024-03-23T08:51:00;11.03;;;3.90;;
19535;SDS011;9913;51.168;4.124;2024-03-23T08:53:27;9.73;;;3.27;;
19535;SDS011;9913;51.168;4.124;2024-03-23T08:55:55;7.70;;;2.60;;
19535;SDS011;9913;51.168;4.124;2024-03-23T08:58:23;8.23;;;3.83;;
19535;SDS011;9913;51.168;4.124;2024-03-23T09:00:52;9.83;;;3.00;;
19535;SDS011;9913;51.168;4.124;2024-03-23T09:03:22;9.73;;;3.00;;
19535;SDS011;9913;51.168;4.124;2024-03-23T09:05:49;11.90;;;2.93;;
19535;SDS011;9913;51.168;4.124;2024-03-23T09:08:16;13.20;;;2.90;;
19535;SDS011;9913;51.168;4.124;2024-03-23T09:10:43;9.30;;;2.70;;
19535;SDS011;9913;51.168;4.124;2024-03-23T09:13:10;8.40;;;3.23;;
19535;SDS011;9913;51.168;4.124;2024-03-23T09:15:44;10.33;;;2.73;;
19535;SDS011;9913;51.168;4.124;2024-03-23T09:18:13;7.37;;;2.43;;
19535;SDS011;9913;51.168;4.124;2024-03-23T09:20:41;6.23;;;1.87;;
19535;SDS011;9913;51.168;4.124;2024-03-23T09:23:07;3.03;;;1.57;;
19535;SDS011;9913;51.168;4.124;2024-03-23T09:25:38;7.97;;;2.07;;
19535;SDS011;9913;51.168;4.124;2024-03-23T09:28:05;7.07;;;2.10;;
19535;SDS011;9913;51.168;4.124;2024-03-23T09:30:34;7.87;;;2.57;;
19535;SDS011;9913;51.168;4.124;2024-03-23T09:33:01;7.97;;;1.90;;
19535;SDS011;9913;51.168;4.124;2024-03-23T09:35:31;6.67;;;2.00;;
19535;SDS011;9913;51.168;4.124;2024-03-23T09:37:57;7.57;;;2.23;;
19535;SDS011;9913;51.168;4.124;2024-03-23T09:40:24;8.57;;;2.07;;
19535;SDS011;9913;51.168;4.124;2024-03-23T09:42:51;8.33;;;2.70;;
19535;SDS011;9913;51.168;4.124;2024-03-23T09:45:20;8.07;;;2.50;;
19535;SDS011;9913;51.168;4.124;2024-03-23T09:47:47;8.80;;;2.37;;
19535;SDS011;9913;51.168;4.124;2024-03-23T09:50:17;9.87;;;2.97;;
19535;SDS011;9913;51.168;4.124;2024-03-23T09:52:44;10.13;;;2.40;;
19535;SDS011;9913;51.168;4.124;2024-03-23T09:55:12;9.57;;;2.50;;
19535;SDS011;9913;51.168;4.124;2024-03-23T09:57:39;11.07;;;2.93;;
19535;SDS011;9913;51.168;4.124;2024-03-23T10:00:07;8.67;;;3.17;;
19535;SDS011;9913;51.168;4.124;2024-03-23T10:02:34;9.07;;;2.77;;
19535;SDS011;9913;51.168;4.124;2024-03-23T10:05:02;12.90;;;3.57;;
19535;SDS011;9913;51.168;4.124;2024-03-23T10:07:29;9.37;;;3.30;;
19535;SDS011;9913;51.168;4.124;2024-03-23T10:09:58;11.87;;;3.50;;
19535;SDS011;9913;51.168;4.124;2024-03-23T10:12:35;9.60;;;3.83;;
19535;SDS011;9913;51.168;4.124;2024-03-23T10:15:03;10.47;;;3.10;;
19535;SDS011;9913;51.168;4.124;2024-03-23T10:17:43;12.30;;;4.00;;
19535;SDS011;9913;51.168;4.124;2024-03-23T10:20:12;5.67;;;2.33;;
19535;SDS011;9913;51.168;4.124;2024-03-23T10:22:38;6.57;;;1.83;;
19535;SDS011;9913;51.168;4.124;2024-03-23T10:25:08;10.33;;;2.50;;
19535;SDS011;9913;51.168;4.124;2024-03-23T10:27:36;5.50;;;2.20;;
19535;SDS011;9913;51.168;4.124;2024-03-23T10:30:09;5.77;;;1.60;;
19535;SDS011;9913;51.168;4.124;2024-03-23T10:32:37;6.23;;;2.03;;
19535;SDS011;9913;51.168;4.124;2024-03-23T10:35:14;7.33;;;1.87;;
19535;SDS011;9913;51.168;4.124;2024-03-23T10:37:41;10.50;;;2.17;;
19535;SDS011;9913;51.168;4.124;2024-03-23T10:40:11;3.97;;;1.63;;
19535;SDS011;9913;51.168;4.124;2024-03-23T10:42:38;7.33;;;2.40;;
19535;SDS011;9913;51.168;4.124;2024-03-23T10:45:06;4.70;;;1.43;;
19535;SDS011;9913;51.168;4.124;2024-03-23T10:47:34;6.47;;;1.60;;
19535;SDS011;9913;51.168;4.124;2024-03-23T10:50:03;7.97;;;1.83;;
19535;SDS011;9913;51.168;4.124;2024-03-23T10:52:31;4.03;;;1.50;;
19535;SDS011;9913;51.168;4.124;2024-03-23T10:54:59;6.87;;;1.53;;
19535;SDS011;9913;51.168;4.124;2024-03-23T10:57:31;8.93;;;1.90;;
19535;SDS011;9913;51.168;4.124;2024-03-23T11:00:05;5.23;;;2.07;;
19535;SDS011;9913;51.168;4.124;2024-03-23T11:02:32;7.53;;;2.20;;
19535;SDS011;9913;51.168;4.124;2024-03-23T11:05:00;5.80;;;2.10;;
19535;SDS011;9913;51.168;4.124;2024-03-23T11:07:30;7.23;;;1.80;;
19535;SDS011;9913;51.168;4.124;2024-03-23T11:09:57;5.23;;;2.00;;
19535;SDS011;9913;51.168;4.124;2024-03-23T11:12:36;7.00;;;1.80;;
19535;SDS011;9913;51.168;4.124;2024-03-23T11:15:03;9.47;;;2.27;;
19535;SDS011;9913;51.168;4.124;2024-03-23T11:17:32;8.03;;;1.87;;
19535;SDS011;9913;51.168;4.124;2024-03-23T11:19:58;6.50;;;2.07;;
19535;SDS011;9913;51.168;4.124;2024-03-23T11:22:39;6.13;;;2.23;;
19535;SDS011;9913;51.168;4.124;2024-03-23T11:25:15;8.03;;;1.97;;
19535;SDS011;9913;51.168;4.124;2024-03-23T11:27:45;7.17;;;2.50;;
19535;SDS011;9913;51.168;4.124;2024-03-23T11:30:12;8.23;;;3.20;;
19535;SDS011;9913;51.168;4.124;2024-03-23T11:32:41;5.23;;;1.70;;
19535;SDS011;9913;51.168;4.124;2024-03-23T11:35:08;3.37;;;1.37;;
19535;SDS011;9913;51.168;4.124;2024-03-23T11:37:36;5.57;;;1.60;;
19535;SDS011;9913;51.168;4.124;2024-03-23T11:40:19;6.27;;;1.90;;
19535;SDS011;9913;51.168;4.124;2024-03-23T11:42:48;4.07;;;1.70;;
19535;SDS011;9913;51.168;4.124;2024-03-23T11:45:21;5.07;;;1.67;;
19535;SDS011;9913;51.168;4.124;2024-03-23T11:47:48;7.03;;;1.97;;
19535;SDS011;9913;51.168;4.124;2024-03-23T11:50:27;9.53;;;2.43;;
19535;SDS011;9913;51.168;4.124;2024-03-23T11:53:05;7.00;;;2.37;;
19535;SDS011;9913;51.168;4.124;2024-03-23T11:55:45;8.17;;;2.60;;
19535;SDS011;9913;51.168;4.124;2024-03-23T11:58:15;7.33;;;2.23;;
19535;SDS011;9913;51.168;4.124;2024-03-23T12:00:42;7.67;;;2.43;;
19535;SDS011;9913;51.168;4.124;2024-03-23T12:03:10;8.53;;;3.03;;
19535;SDS011;9913;51.168;4.124;2024-03-23T12:05:36;7.57;;;2.90;;
19535;SDS011;9913;51.168;4.124;2024-03-23T12:08:21;9.13;;;2.57;;
19535;SDS011;9913;51.168;4.124;2024-03-23T12:10:49;7.13;;;2.50;;
19535;SDS011;9913;51.168;4.124;2024-03-23T12:13:19;6.30;;;2.20;;
19535;SDS011;9913;51.168;4.124;2024-03-23T12:15:50;5.73;;;2.37;;
19535;SDS011;9913;51.168;4.124;2024-03-23T12:18:18;7.23;;;2.27;;
19535;SDS011;9913;51.168;4.124;2024-03-23T12:20:49;9.40;;;2.80;;
19535;SDS011;9913;51.168;4.124;2024-03-23T12:23:17;7.07;;;2.20;;
19535;SDS011;9913;51.168;4.124;2024-03-23T12:25:43;9.03;;;2.70;;
19535;SDS011;9913;51.168;4.124;2024-03-23T12:28:11;6.90;;;2.20;;
19535;SDS011;9913;51.168;4.124;2024-03-23T12:30:39;8.43;;;2.30;;
19535;SDS011;9913;51.168;4.124;2024-03-23T12:33:07;6.40;;;2.03;;
19535;SDS011;9913;51.168;4.124;2024-03-23T12:35:33;6.97;;;1.67;;
19535;SDS011;9913;51.168;4.124;2024-03-23T12:38:01;5.03;;;1.40;;
19535;SDS011;9913;51.168;4.124;2024-03-23T12:40:27;5.00;;;1.40;;
19535;SDS011;9913;51.168;4.124;2024-03-23T12:42:55;5.77;;;1.90;;
19535;SDS011;9913;51.168;4.124;2024-03-23T12:45:21;9.43;;;1.70;;
19535;SDS011;9913;51.168;4.124;2024-03-23T12:47:50;7.43;;;1.77;;
19535;SDS011;9913;51.168;4.124;2024-03-23T12:50:19;5.40;;;1.67;;
19535;SDS011;9913;51.168;4.124;2024-03-23T12:52:47;6.83;;;2.00;;
19535;SDS011;9913;51.168;4.124;2024-03-23T12:55:13;4.60;;;1.80;;
19535;SDS011;9913;51.168;4.124;2024-03-23T12:57:41;9.70;;;2.47;;
19535;SDS011;9913;51.168;4.124;2024-03-23T13:00:07;6.53;;;1.83;;
19535;SDS011;9913;51.168;4.124;2024-03-23T13:02:37;6.33;;;1.80;;
19535;SDS011;9913;51.168;4.124;2024-03-23T13:05:06;7.63;;;2.30;;
19535;SDS011;9913;51.168;4.124;2024-03-23T13:07:34;3.83;;;1.37;;
19535;SDS011;9913;51.168;4.124;2024-03-23T13:10:03;4.90;;;1.37;;
19535;SDS011;9913;51.168;4.124;2024-03-23T13:12:31;3.70;;;0.90;;
19535;SDS011;9913;51.168;4.124;2024-03-23T13:14:58;4.60;;;0.90;;
19535;SDS011;9913;51.168;4.124;2024-03-23T13:17:26;2.00;;;0.80;;
19535;SDS011;9913;51.168;4.124;2024-03-23T13:19:52;3.40;;;0.70;;
19535;SDS011;9913;51.168;4.124;2024-03-23T13:22:22;3.43;;;0.80;;
19535;SDS011;9913;51.168;4.124;2024-03-23T13:24:48;1.87;;;0.70;;
19535;SDS011;9913;51.168;4.124;2024-03-23T13:27:16;2.13;;;1.00;;
19535;SDS011;9913;51.168;4.124;2024-03-23T13:29:43;1.33;;;0.80;;
19535;SDS011;9913;51.168;4.124;2024-03-23T13:32:11;5.60;;;1.00;;
19535;SDS011;9913;51.168;4.124;2024-03-23T13:34:38;1.83;;;0.70;;
19535;SDS011;9913;51.168;4.124;2024-03-23T13:37:05;3.20;;;0.83;;
19535;SDS011;9913;51.168;4.124;2024-03-23T13:39:34;2.07;;;1.00;;
19535;SDS011;9913;51.168;4.124;2024-03-23T13:42:01;1.77;;;0.90;;
19535;SDS011;9913;51.168;4.124;2024-03-23T13:44:31;2.07;;;1.03;;
19535;SDS011;9913;51.168;4.124;2024-03-23T13:46:58;2.17;;;1.10;;
19535;SDS011;9913;51.168;4.124;2024-03-23T13:49:25;6.50;;;1.47;;
19535;SDS011;9913;51.168;4.124;2024-03-23T13:51:53;5.47;;;1.63;;
19535;SDS011;9913;51.168;4.124;2024-03-23T13:54:20;4.83;;;2.13;;
19535;SDS011;9913;51.168;4.124;2024-03-23T13:56:50;4.17;;;1.57;;
19535;SDS011;9913;51.168;4.124;2024-03-23T13:59:16;8.00;;;2.43;;
19535;SDS011;9913;51.168;4.124;2024-03-23T14:01:43;5.17;;;1.90;;
19535;SDS011;9913;51.168;4.124;2024-03-23T14:04:11;5.17;;;2.00;;
19535;SDS011;9913;51.168;4.124;2024-03-23T14:06:39;8.10;;;2.90;;
19535;SDS011;9913;51.168;4.124;2024-03-23T14:09:05;6.23;;;2.40;;
19535;SDS011;9913;51.168;4.124;2024-03-23T14:11:34;8.33;;;2.60;;
19535;SDS011;9913;51.168;4.124;2024-03-23T14:14:03;6.33;;;1.83;;
19535;SDS011;9913;51.168;4.124;2024-03-23T14:16:31;5.17;;;1.77;;
19535;SDS011;9913;51.168;4.124;2024-03-23T14:18:57;6.70;;;2.07;;
19535;SDS011;9913;51.168;4.124;2024-03-23T14:21:25;5.47;;;2.13;;
19535;SDS011;9913;51.168;4.124;2024-03-23T14:23:52;8.00;;;1.97;;
19535;SDS011;9913;51.168;4.124;2024-03-23T14:26:20;7.63;;;1.70;;
19535;SDS011;9913;51.168;4.124;2024-03-23T14:28:47;5.97;;;1.80;;
19535;SDS011;9913;51.168;4.124;2024-03-23T14:31:17;7.50;;;1.70;;
19535;SDS011;9913;51.168;4.124;2024-03-23T14:33:43;7.60;;;1.80;;
19535;SDS011;9913;51.168;4.124;2024-03-23T14:36:13;5.23;;;1.60;;
19535;SDS011;9913;51.168;4.124;2024-03-23T14:38:39;4.07;;;1.40;;
19535;SDS011;9913;51.168;4.124;2024-03-23T14:41:06;4.47;;;1.30;;
19535;SDS011;9913;51.168;4.124;2024-03-23T14:43:34;6.93;;;2.00;;
19535;SDS011;9913;51.168;4.124;2024-03-23T14:46:08;4.50;;;1.37;;
19535;SDS011;9913;51.168;4.124;2024-03-23T14:48:37;6.10;;;1.97;;
19535;SDS011;9913;51.168;4.124;2024-03-23T14:51:04;4.47;;;1.30;;
19535;SDS011;9913;51.168;4.124;2024-03-23T14:53:31;4.00;;;1.17;;
19535;SDS011;9913;51.168;4.124;2024-03-23T14:55:59;5.03;;;1.30;;
19535;SDS011;9913;51.168;4.124;2024-03-23T14:58:26;7.27;;;1.77;;
19535;SDS011;9913;51.168;4.124;2024-03-23T15:00:53;5.87;;;1.83;;
19535;SDS011;9913;51.168;4.124;2024-03-23T15:03:25;5.53;;;1.83;;
19535;SDS011;9913;51.168;4.124;2024-03-23T15:05:54;3.37;;;1.30;;
19535;SDS011;9913;51.168;4.124;2024-03-23T15:08:22;5.67;;;1.50;;
19535;SDS011;9913;51.168;4.124;2024-03-23T15:10:50;4.70;;;1.47;;
19535;SDS011;9913;51.168;4.124;2024-03-23T15:13:16;4.30;;;1.40;;
19535;SDS011;9913;51.168;4.124;2024-03-23T15:15:44;2.90;;;1.60;;
19535;SDS011;9913;51.168;4.124;2024-03-23T15:18:11;5.30;;;1.50;;
19535;SDS011;9913;51.168;4.124;2024-03-23T15:20:40;3.83;;;1.70;;
19535;SDS011;9913;51.168;4.124;2024-03-23T15:23:08;5.30;;;2.00;;
19535;SDS011;9913;51.168;4.124;2024-03-23T15:25:35;3.40;;;1.63;;
19535;SDS011;9913;51.168;4.124;2024-03-23T15:28:02;5.67;;;1.60;;
19535;SDS011;9913;51.168;4.124;2024-03-23T15:30:29;4.33;;;1.70;;
19535;SDS011;9913;51.168;4.124;2024-03-23T15:32:56;3.17;;;1.63;;
19535;SDS011;9913;51.168;4.124;2024-03-23T15:35:23;3.67;;;1.70;;
19535;SDS011;9913;51.168;4.124;2024-03-23T15:37:50;4.27;;;1.90;;
19535;SDS011;9913;51.168;4.124;2024-03-23T15:40:19;5.53;;;2.20;;
19535;SDS011;9913;51.168;4.124;2024-03-23T15:42:46;4.33;;;1.87;;
19535;SDS011;9913;51.168;4.124;2024-03-23T15:45:13;4.30;;;1.80;;
19535;SDS011;9913;51.168;4.124;2024-03-23T15:47:40;5.77;;;2.13;;
19535;SDS011;9913;51.168;4.124;2024-03-23T15:50:10;4.03;;;2.05;;
19535;SDS011;9913;51.168;4.124;2024-03-23T15:52:41;4.83;;;1.80;;
19535;SDS011;9913;51.168;4.124;2024-03-23T15:55:24;3.33;;;1.73;;